CheckWX is a tool to help pilots better visualize weather data.  It is not intended as a substitute for an official pre-flight weather briefing.

03:08:46 UTC

KCLL METAR
Easterwood Field Airport
College Station, Texas, USA
Current

1 hour ago

KCLL 170153Z 18003KT 10SM CLR 19/16 A2993 RMK AO2 SLP133 T01890156
Observed
Feb-17 @ 01:53 UTC
Wind
  • 180° at 3 KTS
Visibility
10 SM
Flight Rules
VFR
Cloud Levels
  • Clear skies
Temperature
19°C / 66°F
Dewpoint
16°C / 61°F
Humidity
83%
Altimeter
29.93" Hg
Pressure
1013.52 hPa
Previous

2 hours ago

KCLL 170053Z 17007KT 10SM CLR 19/16 A2992 RMK AO2 SLP128 T01940156
Observed
Feb-17 @ 00:53 UTC
Wind
  • 170° at 7 KTS
Visibility
10 SM
Flight Rules
VFR
Cloud Levels
  • Clear skies
Temperature
19°C / 66°F
Dewpoint
16°C / 61°F
Humidity
83%
Altimeter
29.92" Hg
Pressure
1013.22 hPa
Previous

3 hours ago

KCLL 162353Z 17010KT 10SM CLR 22/16 A2992 RMK AO2 SLP127 T02170161 10244 20200 55003
Observed
Feb-16 @ 23:53 UTC
Wind
  • 170° at 10 KTS
Visibility
10 SM
Flight Rules
VFR
Cloud Levels
  • Clear skies
Temperature
22°C / 72°F
Dewpoint
16°C / 61°F
Humidity
69%
Altimeter
29.92" Hg
Pressure
1013.22 hPa